»·PEaware :: QXE1014 KRNO-KPDX

QXE1014 :: KRNO-KPDX

FLIGHT INFORMATION

Flight Status: Arrived
Operator:
Horizon Air
More flights by this operator :: More flights under this callsign
Pilot: Jim M. (18055)
Aircraft: DEHAVILLAND DASH 8 400
(DH8D)
More flights by this aircraft type
Origin: KRNO Reno/Tahoe Intl
United States
Destination: KPDX Portland Intl
United States
More flights between these airports :: More routes between these airports
Route: +RENO9 FMG J92 LMT MOXEE PORTL TMBRS2
File this flight plan on PilotEdge
Remarks:
Altitude:
(Current/Filed)
24,000ft
Speed:
(Current/Filed)
350kts
Departed: 25-Feb-19 09:57 AM
Arrived: 25-Feb-19 11:38 AM
Distance/Time
Traveled:
386nm/1:41
Distance/Time
To Go:
Arrived

Flight Plot

Page will automatically refresh every two minutes.

Flight plan parsing failed; only flown route is shown


Map Options




Map Legend


Flown Route
Filed Route
Departure Airport
Arrival Airport
Navaid (VOR, NDB)
Fix

Horizontal Profiles

Position Reports

Time Latitude Longitude Heading Altitude Ground
Speed
25-Feb-19 08:50 39.507853 -119.773820 180 4422ft 0kts
25-Feb-19 08:51 39.507853 -119.773820 180 4422ft 0kts
25-Feb-19 08:52 39.507853 -119.773820 180 4422ft 0kts
25-Feb-19 08:53 39.507853 -119.773820 180 4422ft 0kts
25-Feb-19 08:54 39.507853 -119.773820 180 4422ft 0kts
25-Feb-19 08:55 39.507853 -119.773820 180 4422ft 0kts
25-Feb-19 08:56 39.507853 -119.773820 180 4422ft 0kts
25-Feb-19 08:57 39.507853 -119.773820 180 4422ft 0kts
25-Feb-19 08:58 39.507853 -119.773820 180 4422ft 0kts
25-Feb-19 08:59 39.507853 -119.773820 180 4422ft 0kts
25-Feb-19 09:00 39.507853 -119.773820 180 4422ft 0kts
25-Feb-19 09:01 39.507853 -119.773820 180 4422ft 0kts
25-Feb-19 09:02 39.507853 -119.773820 180 4422ft 0kts
25-Feb-19 09:03 39.507853 -119.773820 180 4422ft 0kts
25-Feb-19 09:04 39.507853 -119.773820 180 4422ft 0kts
25-Feb-19 09:05 39.507853 -119.773820 180 4422ft 0kts
25-Feb-19 09:06 39.507853 -119.773820 180 4422ft 0kts
25-Feb-19 09:07 39.507853 -119.773820 180 4422ft 0kts
25-Feb-19 09:08 39.507853 -119.773820 180 4422ft 0kts
25-Feb-19 09:09 39.507853 -119.773820 180 4422ft 0kts
25-Feb-19 09:10 39.507853 -119.773820 180 4422ft 0kts
25-Feb-19 09:11 39.507853 -119.773820 180 4422ft 0kts
25-Feb-19 09:12 39.507853 -119.773820 180 4422ft 0kts
25-Feb-19 09:13 39.507853 -119.773820 180 4422ft 0kts
25-Feb-19 09:14 39.507853 -119.773820 180 4422ft 0kts
25-Feb-19 09:15 39.507853 -119.773820 180 4422ft 0kts
25-Feb-19 09:16 39.507853 -119.773820 180 4422ft 0kts
25-Feb-19 09:17 39.507853 -119.773820 180 4422ft 0kts
25-Feb-19 09:18 39.507853 -119.773820 180 4422ft 0kts
25-Feb-19 09:19 39.507853 -119.773820 180 4422ft 0kts
25-Feb-19 09:20 39.507853 -119.773820 180 4422ft 0kts
25-Feb-19 09:21 39.507853 -119.773820 180 4422ft 0kts
25-Feb-19 09:22 39.507853 -119.773820 180 4422ft 0kts
25-Feb-19 09:23 39.507853 -119.773820 180 4422ft 0kts
25-Feb-19 09:24 39.507853 -119.773820 180 4422ft 0kts
25-Feb-19 09:25 39.507853 -119.773820 180 4422ft 0kts
25-Feb-19 09:26 39.507853 -119.773820 180 4422ft 0kts
25-Feb-19 09:27 39.507853 -119.773820 180 4422ft 0kts
25-Feb-19 09:28 39.507853 -119.773820 180 4422ft 0kts
25-Feb-19 09:29 39.507853 -119.773820 180 4422ft 0kts
25-Feb-19 09:30 39.507853 -119.773820 180 4422ft 0kts
25-Feb-19 09:31 39.507853 -119.773820 180 4422ft 0kts
25-Feb-19 09:32 39.507853 -119.773820 180 4422ft 0kts
25-Feb-19 09:33 39.507853 -119.773820 180 4422ft 0kts
25-Feb-19 09:34 39.507853 -119.773820 180 4422ft 0kts
25-Feb-19 09:35 39.507853 -119.773820 180 4422ft 0kts
25-Feb-19 09:36 39.507853 -119.773820 180 4422ft 0kts
25-Feb-19 09:37 39.507853 -119.773820 180 4422ft 0kts
25-Feb-19 09:38 39.508400 -119.773811 180 4422ft 1kts
25-Feb-19 09:39 39.508400 -119.773811 180 4422ft 0kts
25-Feb-19 09:40 39.508400 -119.773811 180 4422ft 0kts
25-Feb-19 09:41 39.508400 -119.773811 180 4422ft 0kts
25-Feb-19 09:42 39.508400 -119.773811 180 4422ft 0kts
25-Feb-19 09:43 39.508406 -119.773810 180 4422ft 0kts
25-Feb-19 09:44 39.508406 -119.773810 180 4422ft 0kts
25-Feb-19 09:45 39.508406 -119.773810 180 4422ft 0kts
25-Feb-19 09:46 39.508433 -119.773810 181 4422ft 0kts
25-Feb-19 09:47 39.508388 -119.773223 80 4422ft 6kts
25-Feb-19 09:48 39.508424 -119.772740 86 4422ft 3kts
25-Feb-19 09:49 39.509901 -119.771572 0 4422ft 12kts
25-Feb-19 09:50 39.512579 -119.771580 0 4422ft 7kts
25-Feb-19 09:51 39.513589 -119.770593 104 4422ft 3kts
25-Feb-19 09:52 39.513569 -119.770290 91 4422ft 0kts
25-Feb-19 09:53 39.513569 -119.770290 91 4422ft 0kts
25-Feb-19 09:54 39.513569 -119.770291 91 4422ft 0kts
25-Feb-19 09:55 39.513158 -119.769237 171 4422ft 6kts
25-Feb-19 09:56 39.489440 -119.768300 175 5289ft 123kts
25-Feb-19 09:57 39.457019 -119.760211 164 7237ft 128kts
25-Feb-19 09:58 39.420272 -119.753474 183 9138ft 149kts
25-Feb-19 09:59 39.375678 -119.747838 177 10809ft 189kts
25-Feb-19 10:00 39.322906 -119.734906 178 12748ft 212kts
25-Feb-19 10:01 39.267113 -119.727006 185 14560ft 217kts
25-Feb-19 10:02 39.219210 -119.695866 112 16155ft 270kts
25-Feb-19 10:03 39.248996 -119.632024 357 17685ft 237kts
25-Feb-19 10:04 39.306489 -119.635690 343 18829ft 244kts
25-Feb-19 10:05 39.369349 -119.641703 344 19687ft 253kts
25-Feb-19 10:06 39.430814 -119.646371 343 20979ft 245kts
25-Feb-19 10:07 39.491740 -119.652117 342 21912ft 248kts
25-Feb-19 10:08 39.549116 -119.669783 318 22782ft 229kts
25-Feb-19 10:09 39.598622 -119.706987 317 23593ft 231kts
25-Feb-19 10:10 39.650199 -119.745981 317 23914ft 250kts
25-Feb-19 10:11 39.705971 -119.788676 318 23934ft 274kts
25-Feb-19 10:12 39.757729 -119.827911 319 23939ft 289kts
25-Feb-19 10:13 39.821135 -119.876004 319 23940ft 301kts
25-Feb-19 10:14 39.887040 -119.926190 319 23940ft 309kts
25-Feb-19 10:15 39.954601 -119.977791 320 23939ft 314kts
25-Feb-19 10:16 40.022321 -120.029223 319 23929ft 319kts
25-Feb-19 10:17 40.091652 -120.082833 319 23928ft 323kts
25-Feb-19 10:18 40.161201 -120.136415 319 23931ft 326kts
25-Feb-19 10:19 40.230775 -120.189996 319 23930ft 327kts
25-Feb-19 10:20 40.300807 -120.244200 319 23926ft 328kts
25-Feb-19 10:21 40.371044 -120.298655 319 23922ft 329kts
25-Feb-19 10:22 40.441063 -120.352790 319 23915ft 330kts
25-Feb-19 10:23 40.511621 -120.407523 318 23913ft 330kts
25-Feb-19 10:25 40.581915 -120.462506 318 23908ft 330kts
25-Feb-19 10:26 40.652706 -120.517977 318 23903ft 330kts
25-Feb-19 10:27 40.723596 -120.573678 318 23896ft 331kts
25-Feb-19 10:28 40.794104 -120.629154 317 23891ft 331kts
25-Feb-19 10:29 40.865214 -120.685329 317 23880ft 331kts
25-Feb-19 10:30 40.935385 -120.740848 317 23870ft 331kts
25-Feb-19 10:31 41.005667 -120.796653 317 23854ft 331kts
25-Feb-19 10:32 41.075016 -120.851793 317 23841ft 331kts
25-Feb-19 10:33 41.144391 -120.907062 317 23834ft 331kts
25-Feb-19 10:34 41.215237 -120.963807 317 23828ft 331kts
25-Feb-19 10:35 41.285271 -121.019828 316 23823ft 331kts
25-Feb-19 10:36 41.356448 -121.077117 316 23817ft 331kts
25-Feb-19 10:37 41.427013 -121.133865 316 23812ft 331kts
25-Feb-19 10:38 41.498784 -121.191929 316 23806ft 330kts
25-Feb-19 10:39 41.571766 -121.251007 316 23788ft 330kts
25-Feb-19 10:40 41.642554 -121.308409 316 23781ft 329kts
25-Feb-19 10:41 41.713013 -121.365848 316 23772ft 329kts
25-Feb-19 10:42 41.783840 -121.423579 316 23762ft 329kts
25-Feb-19 10:43 41.856828 -121.483334 316 23750ft 329kts
25-Feb-19 10:44 41.930608 -121.543961 316 23729ft 329kts
25-Feb-19 10:44 41.991265 -121.593789 316 23722ft 328kts
25-Feb-19 10:45 42.063516 -121.653217 315 23715ft 328kts
25-Feb-19 10:47 42.145630 -121.721221 316 23710ft 329kts
25-Feb-19 10:47 42.210608 -121.756747 328 23712ft 343kts
25-Feb-19 10:48 42.291010 -121.795614 327 23711ft 342kts
25-Feb-19 10:49 42.368324 -121.834203 326 23710ft 341kts
25-Feb-19 10:51 42.459408 -121.879867 326 23711ft 341kts
25-Feb-19 10:51 42.523863 -121.912210 326 23711ft 342kts
25-Feb-19 10:52 42.602401 -121.951776 326 23695ft 342kts
25-Feb-19 10:53 42.678450 -121.990149 326 23718ft 343kts
25-Feb-19 10:54 42.759979 -122.031390 326 23728ft 345kts
25-Feb-19 10:55 42.838671 -122.071376 326 23736ft 347kts
25-Feb-19 10:56 42.921300 -122.113437 326 23745ft 349kts
25-Feb-19 10:57 43.006057 -122.156588 326 23756ft 351kts
25-Feb-19 10:58 43.089943 -122.199642 326 23769ft 352kts
25-Feb-19 10:59 43.175235 -122.243440 326 23782ft 354kts
25-Feb-19 11:00 43.261238 -122.287727 326 23785ft 356kts
25-Feb-19 11:01 43.349337 -122.333121 326 23816ft 356kts
25-Feb-19 11:02 43.437537 -122.378946 326 23835ft 358kts
25-Feb-19 11:03 43.523117 -122.423430 326 23835ft 359kts
25-Feb-19 11:04 43.604069 -122.465623 326 23831ft 361kts
25-Feb-19 11:05 43.687511 -122.509244 326 23826ft 362kts
25-Feb-19 11:06 43.773661 -122.554309 326 23819ft 362kts
25-Feb-19 11:07 43.862621 -122.601220 326 23811ft 363kts
25-Feb-19 11:08 43.949041 -122.646829 326 23803ft 364kts
25-Feb-19 11:09 44.029429 -122.689233 326 23796ft 365kts
25-Feb-19 11:10 44.109995 -122.732014 325 23796ft 365kts
25-Feb-19 11:11 44.201495 -122.751366 356 23274ft 396kts
25-Feb-19 11:12 44.298027 -122.737013 354 22261ft 383kts
25-Feb-19 11:13 44.393640 -122.729309 353 20829ft 383kts
25-Feb-19 11:14 44.488526 -122.720197 355 19232ft 387kts
25-Feb-19 11:15 44.585027 -122.710123 355 17601ft 382kts
25-Feb-19 11:16 44.679074 -122.701141 356 16189ft 367kts
25-Feb-19 11:17 44.769679 -122.691967 357 14819ft 354kts
25-Feb-19 11:18 44.856403 -122.683356 358 13630ft 340kts
25-Feb-19 11:19 44.939664 -122.674830 359 12440ft 321kts
25-Feb-19 11:20 45.020981 -122.667208 1 11023ft 306kts
25-Feb-19 11:21 45.098147 -122.659755 4 10052ft 278kts
25-Feb-19 11:22 45.171601 -122.652150 7 8797ft 278kts
25-Feb-19 11:23 45.237952 -122.645136 5 7400ft 243kts
25-Feb-19 11:24 45.300208 -122.670669 343 6115ft 248kts
25-Feb-19 11:25 45.362910 -122.705102 343 5985ft 250kts
25-Feb-19 11:26 45.421813 -122.737651 343 5983ft 235kts
25-Feb-19 11:27 45.478416 -122.780835 326 5646ft 262kts
25-Feb-19 11:28 45.530847 -122.838324 326 4681ft 247kts
25-Feb-19 11:29 45.579194 -122.891080 325 4030ft 216kts
25-Feb-19 11:30 45.625136 -122.909725 43 3682ft 181kts
25-Feb-19 11:31 45.640785 -122.847594 75 3017ft 161kts
25-Feb-19 11:32 45.651365 -122.780710 83 2268ft 193kts
25-Feb-19 11:33 45.636103 -122.726848 114 1678ft 132kts
25-Feb-19 11:34 45.619317 -122.683667 114 989ft 116kts
25-Feb-19 11:35 45.604465 -122.645024 113 476ft 111kts
25-Feb-19 11:36 45.590132 -122.608512 120 38ft 64kts
25-Feb-19 11:37 45.587885 -122.600454 85 37ft 5kts
25-Feb-19 11:38 45.587806 -122.597105 118 37ft 13kts
25-Feb-19 11:39 45.586281 -122.593665 131 37ft 7kts
25-Feb-19 11:40 45.586475 -122.592767 54 37ft 0kts
25-Feb-19 11:41 45.586475 -122.592767 54 37ft 0kts

Navigation Log

Ident Type
Flight plan parsing failed, navigation log unavailable